Time;durP1;ratioP1;P1;durP2;ratioP2;P2;SDS_P1;SDS_P2;PMS_P1;PMS_P2;Temp;Humidity;BMP_temperature;BMP_pressure;BME280_temperature;BME280_humidity;BME280_pressure;Samples;Min_cycle;Max_cycle;Signal;HPM_P1;HPM_P2
2021/01/27 00:01:01;;;;;;;9.07;4.87;;;2.70;72.30;;;;;;5026984;28;20214;-83
2021/01/27 00:03:27;;;;;;;4.90;3.33;;;2.70;72.20;;;;;;5028381;28;20191;-85
2021/01/27 00:05:53;;;;;;;6.40;4.07;;;2.70;72.10;;;;;;5028116;28;20405;-84
2021/01/27 00:08:21;;;;;;;6.63;4.30;;;2.70;71.80;;;;;;5008675;28;20706;-85
2021/01/27 00:10:48;;;;;;;9.03;4.20;;;2.70;71.70;;;;;;5006938;28;20430;-84
2021/01/27 00:13:17;;;;;;;7.00;4.60;;;2.60;71.70;;;;;;5027062;28;20444;-85
2021/01/27 00:15:45;;;;;;;11.73;5.20;;;2.60;71.60;;;;;;5012196;28;20417;-84
2021/01/27 00:18:13;;;;;;;7.33;5.80;;;2.60;71.20;;;;;;5026569;28;20424;-83
2021/01/27 00:20:39;;;;;;;11.83;5.43;;;2.60;71.30;;;;;;5025668;28;20445;-84
2021/01/27 00:23:06;;;;;;;5.70;3.93;;;2.60;71.30;;;;;;5013889;28;20445;-86
2021/01/27 00:25:33;;;;;;;9.07;4.40;;;2.60;71.30;;;;;;5031487;28;20418;-84
2021/01/27 00:27:59;;;;;;;9.23;4.60;;;2.60;70.90;;;;;;5032155;28;20428;-83
2021/01/27 00:30:32;;;;;;;9.43;4.80;;;2.60;70.70;;;;;;5029550;28;20434;-83
2021/01/27 00:32:59;;;;;;;7.30;4.70;;;2.60;70.50;;;;;;5021800;28;20456;-84
2021/01/27 00:35:28;;;;;;;9.50;4.80;;;2.60;70.30;;;;;;5018940;28;20503;-84
2021/01/27 00:37:56;;;;;;;10.37;5.10;;;2.60;69.70;;;;;;5020244;28;20449;-85
2021/01/27 00:40:22;;;;;;;7.10;4.63;;;2.60;69.60;;;;;;5020820;28;20468;-84
2021/01/27 00:42:48;;;;;;;9.60;5.07;;;2.60;69.30;;;;;;5004122;28;20501;-84
2021/01/27 00:45:14;;;;;;;6.30;4.53;;;2.60;69.10;;;;;;5019535;28;20982;-84
2021/01/27 00:47:40;;;;;;;7.07;4.80;;;2.70;69.10;;;;;;5019273;28;20497;-85
2021/01/27 00:50:06;;;;;;;7.13;4.70;;;2.70;68.80;;;;;;5002707;28;20445;-84
2021/01/27 00:52:32;;;;;;;10.40;5.70;;;2.70;68.70;;;;;;5003179;28;20293;-84
2021/01/27 00:54:59;;;;;;;12.17;5.10;;;2.70;68.30;;;;;;5021188;28;20905;-84
2021/01/27 00:57:25;;;;;;;10.63;4.37;;;2.70;68.40;;;;;;5003697;28;20421;-85
2021/01/27 00:59:51;;;;;;;7.50;4.93;;;2.70;68.50;;;;;;5019497;28;20511;-85
2021/01/27 01:02:17;;;;;;;9.30;5.87;;;2.70;68.30;;;;;;5019981;28;20438;-84
2021/01/27 01:04:48;;;;;;;8.83;5.17;;;2.70;68.20;;;;;;5006851;28;20405;-85
2021/01/27 01:07:14;;;;;;;7.80;4.70;;;2.70;68.10;;;;;;5035125;28;20481;-85
2021/01/27 01:09:40;;;;;;;7.53;4.67;;;2.70;67.80;;;;;;5036350;28;20227;-85
2021/01/27 01:12:05;;;;;;;7.17;4.90;;;2.70;67.40;;;;;;5035608;28;20182;-84
2021/01/27 01:14:31;;;;;;;8.63;4.97;;;2.70;67.10;;;;;;5024478;28;20974;-85
2021/01/27 01:16:57;;;;;;;8.53;4.90;;;2.70;67.00;;;;;;5018617;28;20166;-85
2021/01/27 01:19:22;;;;;;;10.83;4.53;;;2.70;66.60;;;;;;5015982;28;20225;-84
2021/01/27 01:21:48;;;;;;;6.53;4.63;;;2.70;66.60;;;;;;5019386;28;20206;-84
2021/01/27 01:24:14;;;;;;;8.53;4.10;;;2.70;66.60;;;;;;5009573;28;20175;-84
2021/01/27 01:26:39;;;;;;;8.07;4.57;;;2.70;66.20;;;;;;5029054;28;20167;-85
2021/01/27 01:29:05;;;;;;;7.53;4.27;;;2.70;65.90;;;;;;5031904;28;20152;-84
2021/01/27 01:31:31;;;;;;;7.50;4.70;;;2.70;65.70;;;;;;5030270;28;20183;-84
2021/01/27 01:33:57;;;;;;;6.87;4.87;;;2.70;65.80;;;;;;5024628;28;20167;-84
2021/01/27 01:36:22;;;;;;;7.63;4.70;;;2.70;65.80;;;;;;5004290;28;20709;-84
2021/01/27 01:38:48;;;;;;;11.63;5.47;;;2.70;65.60;;;;;;5023643;28;20171;-85
2021/01/27 01:41:14;;;;;;;9.90;5.20;;;2.70;65.60;;;;;;5023150;28;20182;-85
2021/01/27 01:43:41;;;;;;;10.10;4.63;;;2.70;65.50;;;;;;5027143;28;20254;-84
2021/01/27 01:46:13;;;;;;;6.90;5.00;;;2.80;65.90;;;;;;5028986;28;20171;-84
2021/01/27 01:48:46;;;;;;;6.60;4.10;;;2.80;65.90;;;;;;5027752;28;20418;-84
2021/01/27 01:51:28;;;;;;;6.17;4.37;;;2.80;65.80;;;;;;5026566;28;20428;-84
2021/01/27 01:54:13;;;;;;;7.33;4.50;;;2.80;66.60;;;;;;5027410;28;20850;-84
2021/01/27 01:56:43;;;;;;;7.00;4.30;;;2.80;65.80;;;;;;5032465;28;20468;-85
2021/01/27 01:59:11;;;;;;;9.40;4.10;;;2.90;66.10;;;;;;5016668;28;20473;-84
2021/01/27 02:01:38;;;;;;;9.17;4.43;;;2.90;65.90;;;;;;5033556;28;20777;-84
2021/01/27 02:04:04;;;;;;;7.17;4.83;;;2.90;65.80;;;;;;5020003;28;20419;-85
2021/01/27 02:06:30;;;;;;;4.30;3.53;;;2.90;65.60;;;;;;5016414;28;20487;-83
2021/01/27 02:08:58;;;;;;;8.60;4.27;;;2.90;65.60;;;;;;5012114;28;20419;-84
2021/01/27 02:11:51;;;;;;;10.47;5.90;;;2.90;65.60;;;;;;5015095;28;20190;-83
2021/01/27 02:14:54;;;;;;;6.83;4.40;;;2.90;65.70;;;;;;5010651;28;20406;-84
2021/01/27 02:17:53;;;;;;;7.33;4.10;;;2.90;65.90;;;;;;5009620;28;20413;-85
2021/01/27 02:20:56;;;;;;;5.20;3.43;;;3.00;66.00;;;;;;5006790;28;20450;-85
2021/01/27 02:23:50;;;;;;;10.10;4.07;;;3.00;65.70;;;;;;4992126;28;20457;-86
2021/01/27 02:26:52;;;;;;;4.67;3.40;;;3.00;65.50;;;;;;5023748;28;20418;-86
2021/01/27 02:29:43;;;;;;;4.80;3.13;;;3.00;65.50;;;;;;5024647;28;20471;-86
2021/01/27 02:32:38;;;;;;;6.90;3.40;;;3.00;65.30;;;;;;5023600;28;20457;-84
2021/01/27 02:35:11;;;;;;;7.20;4.27;;;3.00;65.20;;;;;;5024599;28;20428;-84
2021/01/27 02:37:46;;;;;;;5.87;3.60;;;3.00;65.40;;;;;;5006706;28;20418;-84
2021/01/27 02:40:27;;;;;;;5.97;3.17;;;3.00;65.60;;;;;;5024501;28;20496;-84
2021/01/27 02:43:06;;;;;;;5.60;3.07;;;3.00;65.70;;;;;;5024521;28;20449;-85
2021/01/27 02:45:35;;;;;;;4.27;2.63;;;3.00;66.10;;;;;;5026018;28;20414;-85
2021/01/27 02:48:16;;;;;;;7.93;2.80;;;3.00;66.60;;;;;;5029084;28;20402;-85
2021/01/27 02:51:00;;;;;;;2.63;2.10;;;3.00;67.30;;;;;;5030817;28;20933;-85
2021/01/27 02:53:37;;;;;;;3.90;2.20;;;3.00;68.30;;;;;;5030147;28;20448;-85
2021/01/27 02:56:19;;;;;;;7.17;3.90;;;2.90;69.00;;;;;;5012219;28;20413;-84
2021/01/27 02:59:01;;;;;;;5.13;2.40;;;2.90;69.60;;;;;;5033183;28;20434;-84
2021/01/27 03:01:45;;;;;;;12.27;2.17;;;2.80;69.90;;;;;;5023646;28;20509;-85
2021/01/27 03:04:34;;;;;;;5.77;2.57;;;2.80;70.10;;;;;;5004698;28;20418;-85
2021/01/27 03:07:02;;;;;;;3.37;2.17;;;2.80;70.40;;;;;;5020116;28;20414;-85
2021/01/27 03:09:36;;;;;;;6.23;3.40;;;2.80;71.00;;;;;;5021952;28;20445;-85
2021/01/27 03:12:03;;;;;;;6.00;2.97;;;2.80;72.10;;;;;;5027822;28;20437;-85
2021/01/27 03:14:29;;;;;;;6.40;2.37;;;2.80;71.80;;;;;;5022654;28;20414;-85
2021/01/27 03:17:12;;;;;;;5.03;2.93;;;2.80;72.20;;;;;;5022720;28;20425;-85
2021/01/27 03:19:45;;;;;;;3.90;2.50;;;2.70;72.60;;;;;;5021645;28;20198;-86
2021/01/27 03:22:22;;;;;;;7.90;3.03;;;2.70;73.40;;;;;;5023600;28;20501;-85
2021/01/27 03:25:34;;;;;;;4.77;3.27;;;2.70;73.60;;;;;;5023697;28;20399;-86
2021/01/27 03:27:59;;;;;;;4.63;3.40;;;2.70;74.60;;;;;;5005682;28;20422;-85
2021/01/27 03:30:25;;;;;;;4.80;3.63;;;2.60;75.10;;;;;;5021214;28;21032;-85
2021/01/27 03:32:51;;;;;;;7.17;3.17;;;2.60;75.80;;;;;;5020604;28;20266;-84
2021/01/27 03:35:16;;;;;;;6.03;3.03;;;2.60;77.20;;;;;;5021642;28;20223;-85
2021/01/27 03:37:49;;;;;;;6.50;3.20;;;2.60;76.90;;;;;;5022442;28;20167;-84
2021/01/27 03:40:18;;;;;;;8.60;2.20;;;2.60;77.10;;;;;;5001626;28;20723;-85
2021/01/27 03:43:05;;;;;;;7.87;4.37;;;2.60;77.60;;;;;;5017141;28;20474;-85
2021/01/27 03:45:36;;;;;;;4.10;2.87;;;2.50;77.70;;;;;;5022604;28;20485;-85
2021/01/27 03:48:18;;;;;;;3.80;2.43;;;2.50;78.10;;;;;;5005736;28;20418;-85
2021/01/27 03:50:45;;;;;;;3.20;2.07;;;2.50;78.40;;;;;;5023616;28;21101;-85
2021/01/27 03:53:17;;;;;;;3.60;2.43;;;2.50;78.60;;;;;;5006302;28;20538;-85
2021/01/27 03:55:52;;;;;;;7.37;2.47;;;2.50;78.70;;;;;;5021946;28;20796;-84
2021/01/27 03:58:29;;;;;;;3.00;2.53;;;2.50;79.60;;;;;;5020355;28;20433;-84
2021/01/27 04:01:11;;;;;;;7.50;2.40;;;2.50;79.20;;;;;;5002994;28;20457;-85
2021/01/27 04:03:38;;;;;;;4.07;2.80;;;2.50;79.30;;;;;;5019883;28;20418;-84
2021/01/27 04:06:05;;;;;;;4.03;2.47;;;2.50;79.20;;;;;;5021638;28;20414;-85
2021/01/27 04:08:33;;;;;;;5.27;2.70;;;2.50;79.20;;;;;;5004424;28;20505;-85
2021/01/27 04:11:00;;;;;;;5.60;2.60;;;2.50;79.00;;;;;;5001681;28;20411;-85
2021/01/27 04:13:27;;;;;;;6.30;3.00;;;2.50;79.00;;;;;;5026377;28;20444;-85
2021/01/27 04:15:52;;;;;;;10.73;3.43;;;2.50;79.10;;;;;;5024785;28;20432;-85
2021/01/27 04:18:18;;;;;;;4.50;2.27;;;2.50;79.10;;;;;;5024531;28;20414;-85
2021/01/27 04:20:45;;;;;;;5.63;2.73;;;2.60;79.10;;;;;;5003012;28;20228;-84
2021/01/27 04:23:11;;;;;;;4.90;2.33;;;2.60;79.10;;;;;;5003651;28;20442;-86
2021/01/27 04:25:38;;;;;;;5.20;3.20;;;2.60;79.30;;;;;;5027405;28;20411;-85
2021/01/27 04:28:04;;;;;;;4.23;2.50;;;2.60;79.20;;;;;;5021669;28;20544;-85
2021/01/27 04:30:32;;;;;;;7.43;2.40;;;2.60;79.30;;;;;;5009598;28;20466;-85
2021/01/27 04:33:00;;;;;;;3.23;2.40;;;2.60;79.10;;;;;;5008978;28;20481;-83
2021/01/27 04:35:27;;;;;;;5.03;2.50;;;2.60;79.00;;;;;;5005919;28;20418;-85
2021/01/27 04:37:53;;;;;;;4.07;2.30;;;2.60;79.00;;;;;;5025469;28;20422;-85
2021/01/27 04:40:27;;;;;;;9.47;2.80;;;2.60;79.00;;;;;;5032613;28;20452;-84
2021/01/27 04:42:53;;;;;;;4.03;2.03;;;2.60;79.10;;;;;;5022442;28;20776;-83
2021/01/27 04:45:20;;;;;;;2.57;1.87;;;2.60;78.90;;;;;;5007760;28;20405;-85
2021/01/27 04:48:15;;;;;;;12.33;2.37;;;2.60;78.80;;;;;;5006661;28;20414;-84
2021/01/27 04:50:57;;;;;;;2.87;2.23;;;2.60;78.70;;;;;;5019708;28;20919;-84
2021/01/27 04:53:38;;;;;;;5.50;2.63;;;2.60;78.60;;;;;;5021362;28;20441;-85
2021/01/27 04:56:31;;;;;;;9.47;2.53;;;2.60;78.60;;;;;;5023579;28;20409;-85
2021/01/27 04:59:15;;;;;;;3.63;1.57;;;2.60;78.70;;;;;;5023651;28;20487;-85
2021/01/27 05:01:50;;;;;;;3.77;2.63;;;2.60;78.70;;;;;;5023970;28;20433;-84
2021/01/27 05:05:05;;;;;;;4.23;2.40;;;2.60;78.80;;;;;;5026141;28;20414;-85
2021/01/27 05:07:43;;;;;;;3.33;2.30;;;2.60;78.90;;;;;;5014111;28;20461;-84
2021/01/27 05:10:14;;;;;;;3.87;2.00;;;2.60;79.00;;;;;;5023696;28;20488;-86
2021/01/27 05:13:23;;;;;;;4.37;2.27;;;2.60;78.90;;;;;;5008890;28;21270;-84
2021/01/27 05:15:49;;;;;;;4.73;1.73;;;2.60;79.10;;;;;;5021031;28;20472;-85
2021/01/27 05:18:15;;;;;;;3.80;2.73;;;2.60;79.10;;;;;;5024736;28;20426;-84
2021/01/27 05:20:41;;;;;;;2.70;2.07;;;2.60;79.40;;;;;;5023050;28;20195;-84
2021/01/27 05:23:07;;;;;;;3.17;2.10;;;2.60;79.60;;;;;;5023705;28;20442;-85
2021/01/27 05:25:56;;;;;;;4.63;2.60;;;2.60;79.70;;;;;;5024556;28;20422;-84
2021/01/27 05:28:28;;;;;;;5.47;2.60;;;2.50;79.90;;;;;;5033767;28;20175;-85
2021/01/27 05:30:56;;;;;;;6.30;4.23;;;2.50;80.20;;;;;;5039852;28;20501;-85
2021/01/27 05:33:45;;;;;;;4.47;2.60;;;2.50;80.40;;;;;;5039491;28;20441;-84
2021/01/27 05:36:25;;;;;;;4.40;2.47;;;2.50;80.70;;;;;;5028366;28;20802;-85
2021/01/27 05:39:08;;;;;;;6.13;2.87;;;2.50;81.00;;;;;;5023266;28;20488;-84
2021/01/27 05:42:13;;;;;;;4.53;2.60;;;2.50;81.30;;;;;;5026509;28;20446;-84
2021/01/27 05:44:52;;;;;;;4.00;2.17;;;2.50;81.80;;;;;;5032122;28;20566;-85
2021/01/27 05:47:47;;;;;;;4.73;3.10;;;2.50;81.80;;;;;;5033224;28;20417;-87
2021/01/27 05:50:27;;;;;;;5.00;2.43;;;2.50;82.20;;;;;;4987235;28;20419;-84
2021/01/27 05:52:53;;;;;;;6.17;2.33;;;2.40;82.50;;;;;;5026401;28;20430;-85
2021/01/27 05:55:25;;;;;;;4.87;2.70;;;2.40;82.70;;;;;;5024121;28;20437;-84
2021/01/27 05:58:07;;;;;;;5.70;2.57;;;2.40;82.70;;;;;;5006766;28;20419;-84
2021/01/27 06:01:12;;;;;;;3.80;2.77;;;2.40;82.90;;;;;;5028745;28;20517;-85
2021/01/27 06:04:13;;;;;;;4.00;2.73;;;2.40;83.40;;;;;;5010093;28;20445;-85
2021/01/27 06:07:01;;;;;;;3.53;2.30;;;2.40;83.70;;;;;;5006438;28;20419;-84
2021/01/27 06:10:10;;;;;;;5.30;2.53;;;2.40;84.20;;;;;;5003017;28;20490;-84
2021/01/27 06:12:51;;;;;;;6.20;3.37;;;2.40;84.30;;;;;;4986398;28;20534;-86
2021/01/27 06:19:16;;;;;;;4.73;3.27;;;2.30;84.80;;;;;;5013921;28;20427;-85
2021/01/27 06:22:14;;;;;;;4.37;2.50;;;2.30;85.10;;;;;;4988639;28;20442;-85
2021/01/27 06:25:41;;;;;;;3.40;2.33;;;2.30;85.40;;;;;;5023082;28;20489;-86
2021/01/27 06:28:37;;;;;;;;;;;;;;;;;;;;;
2021/01/27 06:31:43;;;;;;;;;;;;;;;;;;;;;
2021/01/27 06:50:07;;;;;;;5.43;2.90;;;2.10;87.30;;;;;;4958641;28;20479;-75
2021/01/27 06:53:08;;;;;;;5.73;3.70;;;2.10;87.80;;;;;;4982219;28;20451;-74
2021/01/27 06:56:14;;;;;;;9.77;4.53;;;2.10;88.20;;;;;;5007791;28;20438;-73
2021/01/27 06:59:07;;;;;;;5.43;2.77;;;2.00;88.50;;;;;;5011404;28;20413;-73
2021/01/27 07:01:38;;;;;;;6.77;3.27;;;2.00;89.50;;;;;;5013524;28;20907;-75
2021/01/27 07:04:28;;;;;;;6.40;4.20;;;2.00;88.90;;;;;;5013001;28;20946;-74
2021/01/27 07:07:11;;;;;;;8.17;4.23;;;1.90;90.00;;;;;;5005374;28;20417;-74
2021/01/27 07:10:04;;;;;;;5.53;4.07;;;1.90;89.50;;;;;;5013818;28;20402;-74
2021/01/27 07:12:37;;;;;;;6.63;4.37;;;1.90;89.40;;;;;;4993753;28;20817;-74
2021/01/27 07:15:14;;;;;;;15.10;4.70;;;1.90;89.70;;;;;;4997140;28;20517;-75
2021/01/27 07:18:18;;;;;;;6.27;4.00;;;1.90;89.80;;;;;;5003072;28;20409;-74
2021/01/27 07:20:54;;;;;;;7.70;4.17;;;1.90;89.90;;;;;;5002613;28;20515;-74
2021/01/27 07:23:56;;;;;;;8.57;4.80;;;1.90;89.90;;;;;;5014740;28;20488;-73
2021/01/27 07:26:25;;;;;;;10.37;4.80;;;1.90;90.00;;;;;;5014528;28;20492;-75
2021/01/27 07:29:19;;;;;;;9.07;5.43;;;1.80;90.10;;;;;;5013129;28;20447;-74
2021/01/27 07:32:03;;;;;;;6.10;4.30;;;1.80;90.20;;;;;;5004605;28;20545;-77
2021/01/27 07:34:36;;;;;;;8.40;3.90;;;1.80;90.40;;;;;;5009692;28;20426;-74
2021/01/27 07:37:35;;;;;;;7.33;3.97;;;1.80;90.40;;;;;;5015686;28;20457;-74
2021/01/27 07:40:09;;;;;;;7.10;4.13;;;1.80;90.50;;;;;;5010929;28;20458;-74
2021/01/27 07:42:50;;;;;;;8.10;5.00;;;1.80;90.50;;;;;;5013523;28;20799;-76
2021/01/27 07:45:23;;;;;;;6.33;4.70;;;1.80;90.60;;;;;;5009106;28;20792;-74
2021/01/27 07:48:07;;;;;;;7.17;4.10;;;1.80;90.70;;;;;;5013093;28;20417;-76
2021/01/27 07:50:34;;;;;;;5.60;3.33;;;1.80;90.80;;;;;;5001576;28;20437;-75
2021/01/27 07:53:15;;;;;;;7.90;4.53;;;1.80;90.80;;;;;;5012280;28;20820;-75
2021/01/27 07:55:52;;;;;;;8.30;4.90;;;1.80;90.70;;;;;;5007681;28;20954;-75
2021/01/27 07:58:35;;;;;;;7.10;4.90;;;1.80;90.80;;;;;;5010960;28;20422;-75
2021/01/27 08:01:09;;;;;;;7.67;3.90;;;1.80;90.80;;;;;;4996876;28;20466;-74
2021/01/27 08:03:42;;;;;;;7.33;3.23;;;1.90;90.90;;;;;;4993133;28;20807;-74
2021/01/27 08:06:15;;;;;;;5.93;4.17;;;1.90;90.90;;;;;;4999643;28;20419;-74
2021/01/27 08:08:58;;;;;;;7.47;4.00;;;1.90;90.90;;;;;;4993485;28;20482;-74
2021/01/27 08:11:37;;;;;;;6.40;4.20;;;1.90;90.90;;;;;;4997771;28;20434;-74
2021/01/27 08:14:05;;;;;;;5.40;3.90;;;1.90;90.90;;;;;;4992560;28;20403;-74
2021/01/27 08:16:35;;;;;;;9.90;3.53;;;1.90;91.30;;;;;;4998185;28;20422;-75
2021/01/27 08:19:12;;;;;;;4.50;3.50;;;2.00;91.00;;;;;;5012947;28;20414;-76
2021/01/27 08:21:59;;;;;;;9.00;4.60;;;2.00;90.90;;;;;;5006937;28;20452;-75
2021/01/27 08:24:34;;;;;;;6.67;3.40;;;2.00;91.00;;;;;;5010379;28;20398;-75
2021/01/27 08:27:16;;;;;;;3.70;2.77;;;2.00;91.00;;;;;;5009677;28;20409;-74
2021/01/27 08:30:02;;;;;;;5.70;3.80;;;2.00;91.00;;;;;;4998120;28;20804;-75
2021/01/27 08:32:35;;;;;;;13.87;7.80;;;2.00;91.00;;;;;;5000697;28;20487;-75
2021/01/27 08:35:10;;;;;;;8.13;3.90;;;2.00;91.10;;;;;;5016575;28;20413;-74
2021/01/27 08:37:39;;;;;;;4.70;3.13;;;2.00;91.10;;;;;;5011280;28;20926;-74
2021/01/27 08:40:31;;;;;;;7.10;3.30;;;2.00;91.10;;;;;;5003546;28;20497;-74
2021/01/27 08:43:00;;;;;;;5.13;3.70;;;2.10;91.20;;;;;;5010624;28;20441;-75
2021/01/27 08:45:32;;;;;;;4.93;3.10;;;2.10;91.20;;;;;;5015592;28;20410;-75
2021/01/27 08:48:03;;;;;;;5.23;2.83;;;2.20;91.20;;;;;;5015195;28;20425;-74
2021/01/27 08:50:53;;;;;;;6.30;2.80;;;2.20;91.20;;;;;;4994490;28;20426;-75
2021/01/27 08:53:22;;;;;;;5.20;2.83;;;2.20;91.10;;;;;;5004845;28;20971;-74
2021/01/27 08:55:52;;;;;;;3.40;2.43;;;2.30;91.30;;;;;;5015482;28;20418;-75
2021/01/27 08:58:38;;;;;;;5.20;2.90;;;2.30;91.20;;;;;;5015243;28;20434;-75
2021/01/27 09:01:33;;;;;;;6.50;3.87;;;2.30;91.30;;;;;;5015109;28;20469;-75
2021/01/27 09:04:00;;;;;;;6.40;3.10;;;2.30;91.20;;;;;;5015654;28;20445;-75
2021/01/27 09:06:43;;;;;;;10.10;3.80;;;2.30;91.30;;;;;;5011251;28;20860;-75
2021/01/27 09:09:12;;;;;;;7.57;3.43;;;2.30;91.20;;;;;;4999494;28;20501;-75
2021/01/27 09:11:38;;;;;;;5.57;3.37;;;2.40;91.30;;;;;;5003609;28;21006;-76
2021/01/27 09:14:11;;;;;;;3.00;2.60;;;2.40;91.30;;;;;;5015463;28;20502;-74
2021/01/27 09:16:38;;;;;;;4.50;2.70;;;2.40;91.30;;;;;;4999960;28;20504;-74
2021/01/27 09:19:12;;;;;;;5.10;3.60;;;2.40;91.30;;;;;;5013486;28;20418;-76
2021/01/27 09:21:38;;;;;;;6.17;3.47;;;2.40;91.30;;;;;;5009536;28;20468;-74
2021/01/27 09:24:30;;;;;;;3.50;2.87;;;2.50;91.40;;;;;;5012873;28;20422;-75
2021/01/27 09:27:20;;;;;;;6.40;3.53;;;2.50;91.50;;;;;;5002698;28;20188;-75
2021/01/27 09:29:54;;;;;;;5.90;3.20;;;2.60;91.60;;;;;;5009105;28;20427;-76
2021/01/27 09:32:20;;;;;;;5.80;2.80;;;2.60;91.60;;;;;;5004293;28;20452;-75
2021/01/27 09:34:46;;;;;;;3.90;3.37;;;2.70;91.60;;;;;;5009588;28;20489;-75
2021/01/27 09:37:20;;;;;;;11.00;3.47;;;2.70;91.60;;;;;;5003118;28;20182;-75
2021/01/27 09:39:55;;;;;;;5.47;3.30;;;2.80;91.60;;;;;;5014115;28;20459;-75
2021/01/27 09:42:29;;;;;;;3.47;2.70;;;2.90;91.50;;;;;;5012099;28;20475;-76
2021/01/27 09:45:09;;;;;;;5.43;2.67;;;2.90;91.50;;;;;;5012889;28;20425;-74
2021/01/27 09:47:38;;;;;;;6.87;3.00;;;2.90;91.40;;;;;;5016377;28;20426;-75
2021/01/27 09:50:05;;;;;;;4.03;2.30;;;3.00;91.40;;;;;;5007313;28;20426;-75
2021/01/27 09:52:32;;;;;;;11.57;2.77;;;3.00;91.30;;;;;;5004559;28;20473;-76
2021/01/27 09:55:25;;;;;;;5.80;2.60;;;3.00;91.30;;;;;;5014870;28;20429;-75
2021/01/27 09:57:52;;;;;;;4.30;2.47;;;3.00;91.50;;;;;;5018594;28;20841;-74
2021/01/27 10:00:34;;;;;;;3.10;2.07;;;3.10;91.40;;;;;;5018958;28;20449;-74
2021/01/27 10:03:34;;;;;;;3.40;3.10;;;3.20;91.40;;;;;;5021763;28;20445;-76
2021/01/27 10:06:02;;;;;;;6.63;2.90;;;3.20;91.20;;;;;;5015305;28;20410;-75
2021/01/27 10:08:40;;;;;;;4.33;1.87;;;3.30;91.30;;;;;;5013471;28;20425;-75
2021/01/27 10:11:24;;;;;;;2.70;2.27;;;3.30;91.30;;;;;;5013282;28;20425;-77
2021/01/27 10:14:01;;;;;;;5.40;2.73;;;3.30;91.20;;;;;;5017886;28;20467;-76
2021/01/27 10:16:27;;;;;;;4.07;2.83;;;3.30;91.00;;;;;;5009055;28;20458;-75
2021/01/27 10:19:07;;;;;;;5.17;2.27;;;3.30;91.00;;;;;;4995847;28;20528;-75
2021/01/27 10:21:46;;;;;;;6.20;2.27;;;3.40;91.20;;;;;;4994877;28;20637;-74
2021/01/27 10:24:44;;;;;;;6.03;2.87;;;3.40;91.10;;;;;;4996841;28;20414;-76
2021/01/27 10:27:38;;;;;;;10.00;3.00;;;3.40;91.00;;;;;;4998114;28;20434;-75
2021/01/27 10:30:30;;;;;;;4.73;2.63;;;3.50;91.00;;;;;;4993126;28;20823;-75
2021/01/27 10:32:56;;;;;;;6.90;3.00;;;3.40;90.80;;;;;;5001452;28;20451;-75
2021/01/27 10:35:22;;;;;;;7.50;3.10;;;3.40;90.90;;;;;;5018502;28;20476;-76
2021/01/27 10:37:49;;;;;;;5.57;2.97;;;3.40;91.00;;;;;;5007036;28;20410;-79
2021/01/27 10:40:31;;;;;;;7.40;2.63;;;3.50;91.00;;;;;;5000722;28;20238;-77
2021/01/27 10:43:00;;;;;;;6.60;3.30;;;3.50;91.20;;;;;;5005624;28;20439;-80
2021/01/27 10:45:43;;;;;;;4.97;2.90;;;3.50;91.50;;;;;;5003959;28;20421;-79
2021/01/27 10:48:11;;;;;;;5.23;2.77;;;3.50;91.00;;;;;;5020459;28;20404;-83
2021/01/27 10:50:54;;;;;;;6.03;2.83;;;3.50;91.00;;;;;;5014813;28;20538;-78
2021/01/27 10:53:20;;;;;;;8.53;4.53;;;3.50;90.90;;;;;;5029105;28;20456;-78
2021/01/27 10:55:52;;;;;;;4.47;3.17;;;3.50;91.10;;;;;;5030730;28;20423;-79
2021/01/27 10:58:18;;;;;;;5.00;3.90;;;3.60;91.20;;;;;;5023643;28;20618;-79
2021/01/27 11:00:45;;;;;;;5.03;3.50;;;3.50;91.10;;;;;;5001033;28;20543;-79
2021/01/27 11:03:11;;;;;;;3.90;3.20;;;3.50;91.20;;;;;;5016396;28;20415;-78
2021/01/27 11:05:37;;;;;;;9.20;4.93;;;3.50;91.40;;;;;;5016043;28;20434;-79
2021/01/27 11:08:04;;;;;;;7.70;4.00;;;3.50;91.40;;;;;;5014576;28;20419;-79
2021/01/27 11:10:31;;;;;;;6.60;4.20;;;3.50;91.30;;;;;;5000574;28;20433;-80
2021/01/27 11:12:57;;;;;;;8.90;5.07;;;3.50;91.50;;;;;;5006084;28;20442;-79
2021/01/27 11:15:24;;;;;;;5.87;3.87;;;3.50;91.50;;;;;;5019917;28;20513;-81
2021/01/27 11:17:50;;;;;;;8.27;4.20;;;3.50;91.50;;;;;;5001488;28;20418;-79
2021/01/27 11:20:22;;;;;;;5.93;3.73;;;3.50;91.60;;;;;;5009478;28;20459;-80
2021/01/27 11:22:50;;;;;;;5.53;3.43;;;3.50;91.70;;;;;;5012542;28;20477;-78
2021/01/27 11:25:17;;;;;;;4.33;3.30;;;3.50;91.80;;;;;;5018736;28;20424;-79
2021/01/27 11:27:43;;;;;;;5.73;4.30;;;3.50;91.80;;;;;;5020432;28;20820;-82
2021/01/27 11:30:10;;;;;;;4.73;4.20;;;3.50;91.90;;;;;;5016883;28;20424;-78
2021/01/27 11:32:36;;;;;;;5.10;3.90;;;3.60;92.00;;;;;;5017362;28;20473;-79
2021/01/27 11:35:02;;;;;;;6.97;4.40;;;3.60;92.00;;;;;;5014708;28;20414;-79
2021/01/27 11:37:28;;;;;;;7.40;4.57;;;3.60;92.00;;;;;;5020807;28;20170;-80
2021/01/27 11:39:54;;;;;;;5.43;4.20;;;3.60;92.00;;;;;;4997441;28;20454;-79
2021/01/27 11:42:19;;;;;;;8.83;5.20;;;3.60;92.00;;;;;;5007432;28;20191;-78
2021/01/27 11:44:45;;;;;;;5.40;4.00;;;3.60;92.10;;;;;;5014087;28;20175;-79
2021/01/27 11:47:11;;;;;;;8.43;4.83;;;3.70;92.20;;;;;;5018266;28;20186;-79
2021/01/27 11:49:36;;;;;;;5.80;4.57;;;3.70;92.30;;;;;;5020850;28;20186;-80
2021/01/27 11:52:04;;;;;;;5.00;3.77;;;3.70;92.20;;;;;;5001755;28;20214;-82
2021/01/27 11:54:30;;;;;;;6.03;4.13;;;3.80;92.30;;;;;;5012893;28;20185;-80
2021/01/27 11:56:57;;;;;;;5.27;4.40;;;3.80;92.20;;;;;;5004833;28;20460;-80
2021/01/27 11:59:22;;;;;;;4.60;4.10;;;3.80;92.00;;;;;;5014387;28;20434;-79
2021/01/27 12:01:48;;;;;;;7.43;4.30;;;3.80;91.90;;;;;;5002631;28;20478;-80
2021/01/27 12:04:14;;;;;;;6.47;4.43;;;3.80;92.00;;;;;;5015757;28;20164;-79
2021/01/27 12:06:40;;;;;;;9.33;5.00;;;3.80;92.00;;;;;;5013495;28;20175;-79
2021/01/27 12:09:05;;;;;;;6.20;4.33;;;3.80;92.10;;;;;;5015437;28;20163;-79
2021/01/27 12:11:31;;;;;;;6.90;4.50;;;3.80;92.10;;;;;;5015982;28;20175;-81
2021/01/27 12:13:57;;;;;;;8.20;4.57;;;3.80;92.20;;;;;;5016355;28;20175;-79
2021/01/27 12:16:22;;;;;;;5.90;4.30;;;3.80;92.30;;;;;;5015782;28;20175;-79
2021/01/27 12:18:48;;;;;;;8.07;4.70;;;3.80;92.20;;;;;;5016845;28;20198;-80
2021/01/27 12:21:14;;;;;;;7.67;4.77;;;3.80;92.20;;;;;;5016215;28;20206;-80
2021/01/27 12:23:39;;;;;;;5.17;3.63;;;3.80;92.20;;;;;;5015897;28;20301;-79
2021/01/27 12:26:05;;;;;;;6.30;4.13;;;3.80;92.20;;;;;;5014204;28;20206;-79
2021/01/27 12:28:31;;;;;;;6.13;4.30;;;3.80;92.20;;;;;;5016964;28;20163;-80
2021/01/27 12:30:57;;;;;;;7.20;5.10;;;3.80;92.20;;;;;;5014203;28;20198;-80
2021/01/27 12:33:22;;;;;;;10.67;4.73;;;3.80;92.30;;;;;;5015931;28;20222;-79
2021/01/27 12:35:48;;;;;;;5.53;4.13;;;3.80;92.40;;;;;;5017054;28;20429;-80
2021/01/27 12:38:14;;;;;;;6.30;4.40;;;3.80;92.40;;;;;;5015674;28;20174;-79
2021/01/27 12:40:40;;;;;;;8.43;5.30;;;3.80;92.40;;;;;;5017219;28;20221;-80
2021/01/27 12:43:06;;;;;;;7.37;5.67;;;3.80;92.50;;;;;;5016288;28;20430;-80
2021/01/27 12:45:31;;;;;;;8.67;4.70;;;3.90;92.60;;;;;;5017097;28;20250;-78
2021/01/27 12:47:57;;;;;;;5.57;4.83;;;3.90;92.60;;;;;;5017001;28;20226;-80
2021/01/27 12:50:23;;;;;;;7.83;5.40;;;3.90;92.50;;;;;;5015909;28;20652;-79
2021/01/27 12:52:50;;;;;;;13.30;6.10;;;3.90;92.50;;;;;;5017642;28;20198;-80
2021/01/27 12:55:18;;;;;;;7.77;6.00;;;3.90;92.50;;;;;;5018997;28;20570;-81
2021/01/27 12:57:45;;;;;;;6.97;5.00;;;3.90;92.90;;;;;;5006343;28;20423;-80
2021/01/27 13:00:15;;;;;;;7.97;6.20;;;3.90;92.60;;;;;;5010835;28;20461;-80
2021/01/27 13:02:41;;;;;;;11.43;7.67;;;4.00;92.70;;;;;;5017762;28;20432;-79
2021/01/27 13:05:07;;;;;;;16.80;8.00;;;3.90;92.60;;;;;;5012512;28;20433;-80
2021/01/27 13:07:33;;;;;;;14.77;6.27;;;4.00;92.70;;;;;;5016100;28;20179;-79
2021/01/27 13:09:59;;;;;;;9.27;5.73;;;4.00;92.70;;;;;;5004527;28;20500;-79
2021/01/27 13:12:25;;;;;;;7.33;5.77;;;4.00;92.70;;;;;;4995870;28;20673;-80
2021/01/27 13:14:51;;;;;;;9.80;6.80;;;4.10;92.80;;;;;;5003044;28;20167;-80
2021/01/27 13:17:17;;;;;;;10.20;5.40;;;4.10;92.80;;;;;;5015090;28;20795;-79
2021/01/27 13:19:43;;;;;;;15.03;7.10;;;4.10;92.80;;;;;;5017788;28;20453;-79
2021/01/27 13:22:09;;;;;;;9.70;6.13;;;4.10;92.80;;;;;;5019374;28;20527;-80
2021/01/27 13:24:35;;;;;;;11.17;7.50;;;4.10;92.80;;;;;;5017546;28;20163;-79
2021/01/27 13:27:00;;;;;;;13.57;7.07;;;4.20;92.90;;;;;;5018041;28;20842;-79
2021/01/27 13:29:26;;;;;;;12.30;6.53;;;4.20;92.90;;;;;;5018687;28;20167;-79
2021/01/27 13:31:54;;;;;;;11.23;7.23;;;4.20;92.80;;;;;;4999136;28;20196;-81
2021/01/27 13:34:21;;;;;;;12.87;7.83;;;4.30;92.90;;;;;;5004546;28;20167;-82
2021/01/27 13:36:47;;;;;;;10.27;6.57;;;4.30;92.90;;;;;;5019776;28;20421;-80
2021/01/27 13:39:12;;;;;;;11.60;5.70;;;4.30;93.00;;;;;;5016157;28;20423;-79
2021/01/27 13:41:38;;;;;;;34.07;17.50;;;4.30;93.00;;;;;;5019983;28;20539;-79
2021/01/27 13:44:04;;;;;;;9.17;6.40;;;4.40;93.00;;;;;;5020886;28;20167;-80
2021/01/27 13:46:30;;;;;;;9.57;6.00;;;4.40;93.00;;;;;;5022456;28;20175;-81
2021/01/27 13:48:55;;;;;;;7.73;5.00;;;4.50;93.00;;;;;;5011023;28;20419;-84
2021/01/27 13:51:21;;;;;;;6.20;4.07;;;4.50;92.90;;;;;;5030014;28;20186;-80
2021/01/27 13:53:46;;;;;;;5.93;3.90;;;4.50;92.90;;;;;;5020485;28;20167;-80